Time;durP1;ratioP1;P1;durP2;ratioP2;P2;SDS_P1;SDS_P2;PMS_P1;PMS_P2;Temp;Humidity;BMP_temperature;BMP_pressure;BME280_temperature;BME280_humidity;BME280_pressure;Samples;Min_cycle;Max_cycle;Signal;HPM_P1;HPM_P2
2022/05/23 00:00:28;;;;;;;8.93;4.60;;;17.00;99.90;;;;;;5058246;28;20236;-73
2022/05/23 00:02:55;;;;;;;13.87;5.10;;;17.00;99.90;;;;;;5072841;28;20605;-73
2022/05/23 00:05:22;;;;;;;11.30;4.13;;;17.00;99.90;;;;;;5057625;28;20186;-73
2022/05/23 00:07:51;;;;;;;12.13;4.90;;;17.00;99.90;;;;;;5048122;28;20195;-73
2022/05/23 00:10:21;;;;;;;14.03;4.37;;;16.90;99.90;;;;;;5052721;28;20187;-73
2022/05/23 00:12:50;;;;;;;10.63;5.17;;;17.00;99.90;;;;;;5065143;28;20222;-73
2022/05/23 00:15:18;;;;;;;8.73;3.77;;;17.00;99.90;;;;;;5077840;28;20189;-73
2022/05/23 00:17:44;;;;;;;9.97;3.70;;;17.00;99.90;;;;;;5052216;28;20191;-73
2022/05/23 00:20:14;;;;;;;10.80;3.73;;;17.00;99.90;;;;;;5052586;28;20305;-73
2022/05/23 00:22:41;;;;;;;8.33;3.43;;;17.00;99.90;;;;;;5066219;28;20272;-73
2022/05/23 00:25:10;;;;;;;13.47;4.20;;;17.10;99.90;;;;;;5074188;28;20190;-73
2022/05/23 00:27:42;;;;;;;7.73;3.53;;;17.10;99.90;;;;;;5063630;28;20189;-73
2022/05/23 00:30:16;;;;;;;6.43;3.07;;;17.20;99.90;;;;;;5065639;28;20191;-73
2022/05/23 00:35:28;;;;;;;9.17;3.30;;;17.20;99.90;;;;;;5049333;28;20179;-73
2022/05/23 00:37:58;;;;;;;7.43;3.57;;;17.20;99.90;;;;;;5065198;28;20540;-73
2022/05/23 00:40:46;;;;;;;7.53;3.60;;;17.30;99.90;;;;;;5057666;28;20259;-73
2022/05/23 00:43:27;;;;;;;6.97;3.47;;;17.30;99.90;;;;;;5042417;28;20195;-73
2022/05/23 00:46:06;;;;;;;8.03;3.87;;;17.30;99.90;;;;;;5065567;28;20206;-73
2022/05/23 00:48:33;;;;;;;6.63;3.37;;;17.30;99.90;;;;;;5064449;28;20186;-73
2022/05/23 00:51:09;;;;;;;8.47;3.37;;;17.30;99.90;;;;;;5067699;28;20183;-73
2022/05/23 00:53:51;;;;;;;10.37;3.50;;;17.30;99.90;;;;;;5062135;28;20190;-73
2022/05/23 00:56:23;;;;;;;15.80;3.17;;;17.30;99.90;;;;;;5079649;28;20203;-73
2022/05/23 00:58:57;;;;;;;8.47;3.47;;;17.20;99.90;;;;;;5066336;28;20211;-73
2022/05/23 01:01:30;;;;;;;10.50;3.40;;;17.20;99.90;;;;;;5062443;28;20241;-73
2022/05/23 01:03:57;;;;;;;9.27;3.73;;;17.20;99.90;;;;;;5063506;28;20187;-73
2022/05/23 01:06:23;;;;;;;6.23;3.03;;;17.20;99.90;;;;;;5034631;28;20838;-73
2022/05/23 01:08:55;;;;;;;4.70;2.70;;;17.20;99.90;;;;;;5066413;28;20187;-73
2022/05/23 01:11:24;;;;;;;7.83;2.90;;;17.20;99.90;;;;;;5050831;28;20215;-73
2022/05/23 01:13:53;;;;;;;7.73;2.90;;;17.20;99.90;;;;;;5060142;28;20273;-73
2022/05/23 01:16:26;;;;;;;6.27;2.77;;;17.20;99.90;;;;;;5082993;28;20179;-72
2022/05/23 01:18:53;;;;;;;5.07;2.67;;;17.20;99.90;;;;;;5051578;28;20186;-73
2022/05/23 01:21:48;;;;;;;7.23;3.27;;;17.20;99.90;;;;;;5059153;28;20201;-73
2022/05/23 01:24:41;;;;;;;8.47;2.93;;;17.10;99.90;;;;;;5064292;28;20199;-73
2022/05/23 01:27:08;;;;;;;8.43;2.90;;;17.10;99.90;;;;;;5067230;28;20283;-73
2022/05/23 01:29:35;;;;;;;7.93;2.57;;;17.00;99.90;;;;;;5084096;28;20191;-73
2022/05/23 01:32:02;;;;;;;6.83;2.70;;;16.90;99.90;;;;;;5075184;28;20280;-73
2022/05/23 01:34:29;;;;;;;6.93;2.93;;;16.90;99.90;;;;;;5051561;28;20206;-73
2022/05/23 01:37:02;;;;;;;9.97;2.90;;;16.90;99.90;;;;;;5059440;28;20221;-73
2022/05/23 01:39:29;;;;;;;6.00;2.53;;;16.80;99.90;;;;;;5037124;28;20192;-73
2022/05/23 01:41:56;;;;;;;5.70;2.63;;;16.80;99.90;;;;;;5061877;28;20336;-73
2022/05/23 01:44:23;;;;;;;6.13;2.30;;;16.80;99.90;;;;;;5068775;28;20636;-73
2022/05/23 01:46:50;;;;;;;6.37;2.60;;;16.80;99.90;;;;;;5051441;28;20187;-73
2022/05/23 01:49:16;;;;;;;5.90;2.30;;;16.80;99.90;;;;;;5092420;28;20179;-73
2022/05/23 01:51:42;;;;;;;6.70;2.67;;;16.80;99.90;;;;;;5069887;28;20211;-73
2022/05/23 01:54:09;;;;;;;9.37;2.60;;;16.70;99.90;;;;;;5060001;28;20240;-73
2022/05/23 01:56:35;;;;;;;3.60;2.27;;;16.70;99.90;;;;;;5078706;28;20240;-73
2022/05/23 02:01:46;;;;;;;6.13;2.40;;;16.50;99.90;;;;;;5054118;28;20191;-73
2022/05/23 02:04:13;;;;;;;8.80;2.97;;;16.50;99.90;;;;;;5051085;28;20407;-73
2022/05/23 02:06:40;;;;;;;5.40;2.10;;;16.40;99.90;;;;;;5068750;28;20512;-73
2022/05/23 02:09:06;;;;;;;6.57;2.30;;;16.30;99.90;;;;;;5072767;28;20194;-73
2022/05/23 02:11:32;;;;;;;4.47;2.07;;;16.30;99.90;;;;;;5086154;28;20812;-73
2022/05/23 02:13:59;;;;;;;7.47;2.60;;;16.30;99.90;;;;;;5060450;28;20187;-73
2022/05/23 02:16:27;;;;;;;4.43;2.17;;;16.30;99.90;;;;;;5060728;28;20342;-72
2022/05/23 02:18:53;;;;;;;8.20;2.30;;;16.30;99.90;;;;;;5062611;28;20183;-73
2022/05/23 02:21:21;;;;;;;6.77;2.50;;;16.30;99.90;;;;;;5082636;28;20195;-73
2022/05/23 02:23:50;;;;;;;6.70;2.77;;;16.20;99.90;;;;;;5066036;28;20738;-73
2022/05/23 02:26:16;;;;;;;6.27;2.20;;;16.20;99.90;;;;;;5060134;28;20190;-73
2022/05/23 02:28:43;;;;;;;12.70;2.70;;;16.20;99.90;;;;;;5061353;28;20190;-73
2022/05/23 02:31:09;;;;;;;7.00;2.47;;;16.20;99.90;;;;;;5081248;28;21715;-73
2022/05/23 02:33:38;;;;;;;8.67;2.73;;;16.10;99.90;;;;;;5066962;28;20552;-73
2022/05/23 02:36:05;;;;;;;8.10;2.80;;;16.10;99.90;;;;;;5071164;28;20197;-73
2022/05/23 02:38:31;;;;;;;6.40;2.67;;;16.10;99.90;;;;;;5050527;28;20277;-73
2022/05/23 02:40:58;;;;;;;6.97;2.43;;;16.20;99.90;;;;;;5066985;28;20256;-73
2022/05/23 02:43:27;;;;;;;6.20;2.73;;;16.20;99.90;;;;;;5053512;28;20231;-73
2022/05/23 02:45:53;;;;;;;4.97;2.83;;;16.30;99.90;;;;;;5070797;28;20182;-73
2022/05/23 02:48:19;;;;;;;8.27;2.80;;;16.20;99.90;;;;;;5078861;28;20191;-73
2022/05/23 02:50:46;;;;;;;7.03;2.60;;;16.20;99.90;;;;;;5065619;28;20190;-73
2022/05/23 02:53:15;;;;;;;6.37;2.40;;;16.10;99.90;;;;;;5070967;28;20215;-73
2022/05/23 02:55:42;;;;;;;10.73;3.13;;;16.10;99.90;;;;;;5068983;28;20214;-73
2022/05/23 02:58:08;;;;;;;7.37;2.67;;;16.10;99.90;;;;;;5082729;28;20187;-73
2022/05/23 03:00:36;;;;;;;11.87;3.07;;;16.20;99.90;;;;;;5064684;28;20230;-73
2022/05/23 03:03:06;;;;;;;10.20;2.83;;;16.10;99.90;;;;;;5063372;28;20191;-73
2022/05/23 03:05:48;;;;;;;10.43;2.77;;;16.10;99.90;;;;;;5061644;28;20895;-73
2022/05/23 03:08:24;;;;;;;6.27;2.40;;;16.10;99.90;;;;;;5045388;28;20774;-73
2022/05/23 03:10:56;;;;;;;10.33;3.17;;;16.10;99.90;;;;;;5059995;28;20186;-73
2022/05/23 03:13:23;;;;;;;17.67;3.27;;;16.10;99.90;;;;;;5073668;28;20235;-73
2022/05/23 03:15:50;;;;;;;10.27;3.13;;;16.10;99.90;;;;;;5053395;28;20576;-73
2022/05/23 03:18:18;;;;;;;8.33;2.80;;;16.20;99.90;;;;;;5065695;28;20197;-73
2022/05/23 03:20:44;;;;;;;8.60;2.87;;;16.30;99.90;;;;;;5066982;28;20532;-73
2022/05/23 03:28:44;;;;;;;7.83;3.00;;;16.20;99.90;;;;;;5071411;28;20575;-73
2022/05/23 03:31:10;;;;;;;7.37;2.90;;;16.20;99.90;;;;;;5034833;28;20209;-73
2022/05/23 03:33:36;;;;;;;8.23;2.87;;;16.20;99.90;;;;;;5067509;28;20187;-73
2022/05/23 03:36:03;;;;;;;9.90;3.23;;;16.20;99.90;;;;;;5075739;28;20191;-73
2022/05/23 03:38:30;;;;;;;13.50;2.67;;;16.30;99.90;;;;;;5066958;28;20256;-73
2022/05/23 03:41:03;;;;;;;6.93;2.73;;;16.30;99.90;;;;;;5050147;28;20179;-73
2022/05/23 03:43:30;;;;;;;9.10;2.77;;;16.30;99.90;;;;;;5066631;28;20631;-73
2022/05/23 03:46:21;;;;;;;4.77;2.90;;;16.30;99.90;;;;;;5065072;28;20198;-73
2022/05/23 03:48:48;;;;;;;8.17;3.00;;;16.30;99.90;;;;;;5073594;28;20183;-73
2022/05/23 03:51:14;;;;;;;6.13;2.57;;;16.40;99.90;;;;;;5064440;28;20264;-73
2022/05/23 03:53:42;;;;;;;6.03;2.50;;;16.40;99.90;;;;;;5052324;28;20198;-73
2022/05/23 03:56:08;;;;;;;5.93;2.50;;;16.40;99.90;;;;;;5080321;28;20191;-73
2022/05/23 03:58:36;;;;;;;6.63;2.80;;;16.40;99.90;;;;;;5063262;28;20199;-73
2022/05/23 04:01:18;;;;;;;8.23;2.73;;;16.40;99.90;;;;;;5044673;28;20579;-73
2022/05/23 04:03:44;;;;;;;4.63;2.23;;;16.40;99.90;;;;;;5068568;28;20274;-73
2022/05/23 04:06:11;;;;;;;5.90;2.43;;;16.40;99.90;;;;;;5065334;28;20190;-73
2022/05/23 04:08:37;;;;;;;6.47;2.20;;;16.40;99.90;;;;;;5074926;28;20285;-73
2022/05/23 04:11:04;;;;;;;8.47;2.43;;;16.40;99.90;;;;;;5060057;28;20750;-73
2022/05/23 04:13:31;;;;;;;5.00;2.30;;;16.50;99.90;;;;;;5076673;28;20218;-73
2022/05/23 04:15:57;;;;;;;8.07;2.60;;;16.50;99.90;;;;;;5047294;28;20210;-73
2022/05/23 04:18:36;;;;;;;8.47;2.33;;;16.50;99.90;;;;;;5032755;28;20182;-73
2022/05/23 04:21:05;;;;;;;5.20;2.40;;;16.50;99.90;;;;;;5055598;28;20245;-73
2022/05/23 04:23:32;;;;;;;6.67;2.23;;;16.60;99.90;;;;;;5067339;28;20528;-73
2022/05/23 04:26:08;;;;;;;4.63;2.40;;;16.60;99.90;;;;;;5052066;28;20297;-73
2022/05/23 04:29:10;;;;;;;7.47;2.33;;;16.60;99.90;;;;;;5064223;28;20202;-73
2022/05/23 04:31:38;;;;;;;5.60;2.33;;;16.70;99.90;;;;;;5058280;28;20299;-73
2022/05/23 04:36:50;;;;;;;3.70;2.10;;;16.80;99.90;;;;;;5064249;28;20187;-73
2022/05/23 04:39:17;;;;;;;6.87;2.37;;;16.90;99.90;;;;;;5059227;28;20210;-73
2022/05/23 04:41:47;;;;;;;8.10;2.87;;;16.90;99.90;;;;;;5073674;28;20333;-73
2022/05/23 04:44:13;;;;;;;9.33;2.90;;;17.10;99.90;;;;;;5066179;28;20194;-73
2022/05/23 04:49:41;;;;;;;7.87;2.50;;;17.20;99.90;;;;;;5050276;28;20199;-73
2022/05/23 04:52:10;;;;;;;5.30;2.20;;;17.30;99.90;;;;;;5066958;28;20222;-73
2022/05/23 04:54:38;;;;;;;5.17;2.13;;;17.30;99.90;;;;;;5033165;28;20230;-73
2022/05/23 04:57:06;;;;;;;6.37;2.63;;;17.40;99.90;;;;;;5056354;28;20213;-73
2022/05/23 04:59:34;;;;;;;9.20;2.60;;;17.40;99.90;;;;;;5058606;28;20282;-73
2022/05/23 05:02:01;;;;;;;8.23;2.53;;;17.50;99.90;;;;;;5074690;28;20653;-73
2022/05/23 05:04:30;;;;;;;7.93;2.43;;;17.50;99.90;;;;;;5071473;28;20282;-73
2022/05/23 05:06:57;;;;;;;8.20;2.70;;;17.60;99.90;;;;;;5074102;28;20202;-73
2022/05/23 05:09:24;;;;;;;7.83;2.90;;;17.70;99.90;;;;;;5056029;28;20194;-73
2022/05/23 05:11:50;;;;;;;8.57;2.70;;;17.80;99.90;;;;;;5086277;28;20214;-73
2022/05/23 05:14:21;;;;;;;7.87;2.73;;;17.90;99.90;;;;;;5044249;28;20248;-73
2022/05/23 05:16:47;;;;;;;6.00;2.70;;;18.00;99.90;;;;;;5061878;28;20533;-73
2022/05/23 05:19:13;;;;;;;15.27;3.10;;;18.10;99.90;;;;;;5085900;28;20215;-73
2022/05/23 05:21:40;;;;;;;8.13;2.87;;;18.20;99.90;;;;;;5049269;28;20641;-73
2022/05/23 05:24:07;;;;;;;8.20;2.57;;;18.30;99.90;;;;;;5040537;28;20197;-73
2022/05/23 05:26:33;;;;;;;6.63;2.47;;;18.30;99.90;;;;;;5066737;28;20216;-73
2022/05/23 05:28:59;;;;;;;11.47;3.10;;;18.30;99.90;;;;;;5056450;28;20199;-73
2022/05/23 05:32:05;;;;;;;13.37;2.80;;;18.40;99.90;;;;;;5043532;28;20249;-73
2022/05/23 05:34:46;;;;;;;15.03;3.33;;;18.60;99.90;;;;;;5064253;28;20199;-72
2022/05/23 05:37:28;;;;;;;21.97;3.70;;;18.80;99.90;;;;;;5047354;28;20195;-73
2022/05/23 05:39:56;;;;;;;13.00;3.30;;;19.00;99.90;;;;;;5066411;28;20220;-73
2022/05/23 05:42:36;;;;;;;8.23;2.97;;;19.10;99.90;;;;;;5058190;28;20302;-72
2022/05/23 05:45:11;;;;;;;11.07;3.13;;;19.20;99.90;;;;;;5062325;28;20245;-73
2022/05/23 05:47:42;;;;;;;8.33;2.83;;;19.30;99.90;;;;;;5029387;28;20726;-72
2022/05/23 05:50:20;;;;;;;12.13;3.23;;;19.30;99.90;;;;;;5073351;28;20270;-72
2022/05/23 05:52:48;;;;;;;13.23;3.13;;;19.30;99.90;;;;;;5063834;28;20222;-73
2022/05/23 05:55:18;;;;;;;8.57;2.67;;;19.40;99.90;;;;;;5053304;28;20198;-73
2022/05/23 05:57:45;;;;;;;11.83;2.90;;;19.50;99.90;;;;;;5066452;28;20179;-72
2022/05/23 06:00:12;;;;;;;11.97;2.90;;;19.50;99.90;;;;;;5046154;28;20337;-73
2022/05/23 06:02:39;;;;;;;12.23;3.37;;;19.70;99.90;;;;;;5072018;28;20950;-73
2022/05/23 06:05:06;;;;;;;9.83;3.20;;;19.80;99.90;;;;;;5061395;28;20190;-73
2022/05/23 06:13:03;;;;;;;8.13;2.57;;;19.90;99.90;;;;;;5071589;28;20229;-73
2022/05/23 06:15:30;;;;;;;7.07;2.60;;;19.90;99.90;;;;;;5071068;28;20563;-73
2022/05/23 06:17:56;;;;;;;8.50;2.50;;;19.90;99.90;;;;;;5070860;28;20207;-72
2022/05/23 06:20:23;;;;;;;5.50;2.10;;;20.10;99.90;;;;;;5050058;28;20726;-72
2022/05/23 06:22:51;;;;;;;9.23;2.80;;;20.10;99.90;;;;;;5067773;28;20745;-72
2022/05/23 06:25:18;;;;;;;7.80;2.83;;;20.20;99.90;;;;;;5046582;28;20221;-73
2022/05/23 06:27:45;;;;;;;6.90;2.80;;;20.50;99.90;;;;;;5067269;28;20691;-72
2022/05/23 06:30:15;;;;;;;8.40;2.70;;;20.50;99.90;;;;;;5068026;28;20515;-73
2022/05/23 06:32:44;;;;;;;10.17;3.33;;;20.50;99.90;;;;;;5040717;28;20219;-72
2022/05/23 06:35:11;;;;;;;8.53;3.30;;;20.50;99.90;;;;;;5072123;28;20278;-72
2022/05/23 06:37:40;;;;;;;7.20;2.70;;;20.50;99.90;;;;;;5064959;28;20191;-72
2022/05/23 06:40:12;;;;;;;8.23;2.73;;;20.60;99.90;;;;;;5038758;28;20543;-72
2022/05/23 06:42:39;;;;;;;7.40;2.20;;;20.70;99.90;;;;;;5062415;28;20285;-72
2022/05/23 06:45:08;;;;;;;7.80;2.83;;;20.80;99.90;;;;;;5038703;28;20206;-72
2022/05/23 06:47:35;;;;;;;5.97;2.30;;;20.80;99.90;;;;;;5061756;28;20619;-72
2022/05/23 06:50:01;;;;;;;6.60;2.77;;;20.90;99.90;;;;;;5063221;28;20206;-73
2022/05/23 06:52:28;;;;;;;6.90;2.33;;;21.00;99.90;;;;;;5062624;28;20250;-72
2022/05/23 06:54:54;;;;;;;9.27;2.73;;;21.10;99.90;;;;;;5046605;28;20953;-72
2022/05/23 06:57:20;;;;;;;8.20;2.67;;;21.30;99.90;;;;;;5071741;28;20622;-72
2022/05/23 06:59:47;;;;;;;10.77;2.53;;;21.30;99.90;;;;;;5067724;28;20632;-72
2022/05/23 07:02:13;;;;;;;12.00;2.90;;;21.40;99.90;;;;;;5061011;28;20214;-72
2022/05/23 07:13:02;;;;;;;10.53;2.83;;;21.80;99.90;;;;;;5073248;28;20206;-72
2022/05/23 07:15:35;;;;;;;13.60;3.37;;;21.90;99.90;;;;;;5059898;28;20277;-72
2022/05/23 07:18:03;;;;;;;13.50;2.87;;;22.00;99.90;;;;;;5049277;28;20193;-72
2022/05/23 07:20:29;;;;;;;8.87;2.57;;;22.10;99.90;;;;;;5047902;28;20199;-73
2022/05/23 07:22:56;;;;;;;11.43;3.07;;;22.20;99.90;;;;;;5050058;28;20194;-72
2022/05/23 07:25:22;;;;;;;11.00;2.40;;;22.30;99.90;;;;;;5049772;28;20221;-72
2022/05/23 07:27:50;;;;;;;6.67;2.53;;;22.20;99.90;;;;;;5061031;28;20592;-72
2022/05/23 07:30:19;;;;;;;8.87;2.60;;;22.30;99.90;;;;;;5058598;28;20195;-72
2022/05/23 07:32:45;;;;;;;10.23;2.80;;;22.40;99.90;;;;;;5047869;28;20233;-73
2022/05/23 07:35:12;;;;;;;13.07;2.70;;;22.50;99.90;;;;;;5058306;28;20803;-73
2022/05/23 07:37:38;;;;;;;13.13;3.10;;;22.80;99.90;;;;;;5066428;28;20196;-73
2022/05/23 07:40:06;;;;;;;8.70;2.70;;;22.80;99.90;;;;;;5074905;28;20285;-73
2022/05/23 07:42:32;;;;;;;10.23;2.63;;;22.80;99.90;;;;;;5054505;28;20569;-72
2022/05/23 07:44:58;;;;;;;11.32;2.50;;;22.90;99.90;;;;;;5071506;28;20547;-73
2022/05/23 07:47:25;;;;;;;11.98;2.80;;;22.90;99.90;;;;;;5064393;28;20232;-72
2022/05/23 07:49:51;;;;;;;8.23;2.53;;;23.00;99.90;;;;;;5057470;28;20193;-73
2022/05/23 07:52:18;;;;;;;8.50;2.33;;;23.00;99.90;;;;;;5066626;28;20294;-73
2022/05/23 08:00:33;;;;;;;11.05;2.75;;;23.20;99.90;;;;;;5041368;28;20187;-73
2022/05/23 08:03:10;;;;;;;8.00;2.78;;;23.20;99.90;;;;;;5043901;28;20278;-73
2022/05/23 08:05:37;;;;;;;10.00;2.58;;;23.30;99.90;;;;;;5070931;28;20194;-73
2022/05/23 08:08:04;;;;;;;7.53;2.15;;;23.40;99.90;;;;;;5055650;28;20199;-73
2022/05/23 08:10:30;;;;;;;10.20;2.40;;;23.60;99.90;;;;;;5045622;28;20205;-73
2022/05/23 08:12:58;;;;;;;16.48;2.92;;;23.70;99.90;;;;;;5047631;28;20232;-73
2022/05/23 08:15:28;;;;;;;13.93;2.63;;;23.80;99.90;;;;;;5046953;28;20271;-72
2022/05/23 08:17:55;;;;;;;15.27;2.38;;;23.90;99.90;;;;;;5067994;28;20183;-72
2022/05/23 08:20:22;;;;;;;4.28;1.70;;;24.00;99.90;;;;;;5052640;28;20562;-72
2022/05/23 08:22:54;;;;;;;7.57;2.10;;;24.00;99.90;;;;;;5040992;28;20195;-72
2022/05/23 08:25:21;;;;;;;10.48;2.30;;;24.10;99.90;;;;;;5049260;28;20882;-72
2022/05/23 08:27:48;;;;;;;6.03;2.25;;;24.30;99.90;;;;;;5067762;28;20185;-72
2022/05/23 08:30:14;;;;;;;15.13;2.10;;;24.30;99.90;;;;;;5032336;28;20205;-72
2022/05/23 08:32:40;;;;;;;8.63;1.98;;;24.30;99.90;;;;;;5075707;28;20210;-72
2022/05/23 08:35:09;;;;;;;6.53;2.10;;;24.50;99.90;;;;;;5013289;28;20187;-72
2022/05/23 08:37:36;;;;;;;6.03;2.13;;;24.60;99.90;;;;;;5067886;28;20183;-72
2022/05/23 08:40:03;;;;;;;6.57;2.08;;;24.80;99.90;;;;;;5059735;28;20217;-72
2022/05/23 08:42:42;;;;;;;9.50;2.28;;;24.90;99.90;;;;;;5061880;28;20232;-72
2022/05/23 08:45:37;;;;;;;6.20;2.05;;;24.90;99.90;;;;;;5064919;28;20252;-72
2022/05/23 08:48:43;;;;;;;5.70;2.08;;;25.00;99.90;;;;;;5058707;28;20271;-72
2022/05/23 08:51:44;;;;;;;8.40;2.30;;;25.10;99.90;;;;;;5032288;28;20194;-72
2022/05/23 08:54:54;;;;;;;10.15;2.05;;;25.20;99.90;;;;;;5049854;28;20191;-72
2022/05/23 08:58:12;;;;;;;10.55;2.67;;;25.20;99.90;;;;;;5051555;28;20186;-72
2022/05/23 09:00:47;;;;;;;10.60;2.53;;;25.40;99.90;;;;;;5066475;28;20248;-73
2022/05/23 09:03:34;;;;;;;6.88;2.10;;;25.50;99.90;;;;;;5071270;28;20186;-73
2022/05/23 09:06:28;;;;;;;9.10;2.15;;;25.50;99.90;;;;;;5036618;28;20196;-72
2022/05/23 09:09:13;;;;;;;6.25;2.10;;;25.50;99.90;;;;;;5071561;28;20214;-72
2022/05/23 09:11:52;;;;;;;8.68;2.40;;;25.60;99.90;;;;;;5070995;28;20246;-72
2022/05/23 09:14:20;;;;;;;4.85;1.95;;;25.60;99.90;;;;;;5033667;28;20183;-72
2022/05/23 09:16:48;;;;;;;5.72;1.90;;;25.80;99.90;;;;;;5070535;28;20217;-72
2022/05/23 09:19:31;;;;;;;5.82;2.00;;;25.80;99.90;;;;;;5040403;28;20399;-72
2022/05/23 09:22:18;;;;;;;7.47;1.98;;;25.90;99.90;;;;;;5062838;28;20195;-72
2022/05/23 09:24:58;;;;;;;5.00;1.80;;;26.10;99.90;;;;;;5059552;28;20202;-72
2022/05/23 09:28:03;;;;;;;4.82;1.85;;;26.30;99.90;;;;;;5064526;28;20666;-72
2022/05/23 09:30:29;;;;;;;7.75;2.28;;;26.30;99.90;;;;;;5062025;28;20551;-73
2022/05/23 09:33:01;;;;;;;6.03;2.10;;;26.30;99.90;;;;;;5060827;28;20203;-73
2022/05/23 09:36:07;;;;;;;5.07;2.13;;;26.20;99.90;;;;;;5075129;28;20201;-72
2022/05/23 09:38:53;;;;;;;6.15;2.20;;;26.30;99.90;;;;;;5079802;28;20191;-72
2022/05/23 09:50:08;;;;;;;7.25;2.35;;;26.70;99.90;;;;;;5062167;28;20178;-72
2022/05/23 09:52:49;;;;;;;5.40;1.95;;;26.80;99.90;;;;;;5056797;28;20587;-72
2022/05/23 09:55:30;;;;;;;6.05;1.80;;;26.80;99.90;;;;;;5070025;28;20185;-72
2022/05/23 09:58:06;;;;;;;6.93;2.25;;;26.80;99.90;;;;;;5065161;28;20240;-72
2022/05/23 10:01:01;;;;;;;3.10;1.90;;;27.00;99.10;;;;;;5032470;28;20179;-72
2022/05/23 10:03:30;;;;;;;6.00;2.00;;;27.10;97.90;;;;;;5070487;28;20578;-72
2022/05/23 10:06:12;;;;;;;14.00;2.15;;;27.10;98.10;;;;;;5070398;28;20187;-72
2022/05/23 10:08:50;;;;;;;3.65;1.63;;;27.10;97.20;;;;;;5068777;28;20214;-72
2022/05/23 10:11:32;;;;;;;8.63;1.77;;;27.10;96.90;;;;;;5049986;28;20193;-72
2022/05/23 10:14:05;;;;;;;8.07;2.17;;;27.00;97.10;;;;;;5064725;28;20197;-72
2022/05/23 10:16:49;;;;;;;4.28;1.83;;;26.90;97.60;;;;;;5051623;28;20198;-72
2022/05/23 10:19:38;;;;;;;6.15;1.90;;;27.00;96.80;;;;;;5035925;28;20187;-73
2022/05/23 10:22:25;;;;;;;6.05;2.00;;;27.10;96.50;;;;;;5052842;28;20190;-73
2022/05/23 10:24:57;;;;;;;3.40;1.70;;;27.10;95.90;;;;;;5050478;28;20289;-72
2022/05/23 10:27:47;;;;;;;3.10;1.90;;;27.00;95.80;;;;;;5044024;28;20175;-73
2022/05/23 10:30:18;;;;;;;6.85;2.15;;;27.10;95.90;;;;;;5069324;28;20274;-72
2022/05/23 10:32:56;;;;;;;5.57;2.28;;;27.10;96.00;;;;;;5067037;28;20215;-73
2022/05/23 10:35:34;;;;;;;4.28;1.73;;;27.00;95.80;;;;;;5038695;28;20297;-73
2022/05/23 10:44:10;;;;;;;5.65;1.88;;;27.30;95.10;;;;;;5049544;28;20179;-72
2022/05/23 10:46:40;;;;;;;5.75;1.92;;;27.40;96.10;;;;;;5075957;28;20191;-73
2022/05/23 10:49:36;;;;;;;9.77;2.00;;;27.30;96.70;;;;;;5045530;28;20183;-73
2022/05/23 10:52:22;;;;;;;9.35;2.33;;;27.20;97.30;;;;;;5047761;28;20669;-73
2022/05/23 10:55:09;;;;;;;7.75;2.00;;;27.40;98.10;;;;;;5059200;28;20232;-73
2022/05/23 10:57:59;;;;;;;6.32;2.10;;;27.40;97.10;;;;;;5089281;28;20198;-73
2022/05/23 11:00:49;;;;;;;4.65;1.70;;;27.20;96.80;;;;;;5069419;28;20209;-73
2022/05/23 11:03:44;;;;;;;4.43;2.08;;;27.30;96.50;;;;;;5044017;28;20281;-73
2022/05/23 11:06:58;;;;;;;4.30;1.90;;;27.30;95.00;;;;;;5064044;28;20578;-72
2022/05/23 11:10:06;;;;;;;7.97;2.05;;;27.10;95.70;;;;;;5037513;28;20369;-72
2022/05/23 11:13:19;;;;;;;5.40;2.08;;;27.20;95.90;;;;;;5058494;28;20656;-72
2022/05/23 11:16:26;;;;;;;5.75;2.20;;;27.30;95.50;;;;;;5047474;28;20206;-72
2022/05/23 11:19:10;;;;;;;5.90;2.15;;;27.30;96.00;;;;;;5063754;28;20639;-72
2022/05/23 11:22:02;;;;;;;7.22;1.98;;;27.20;96.20;;;;;;5027593;28;20194;-72
2022/05/23 11:24:59;;;;;;;9.05;2.30;;;27.20;96.10;;;;;;5056574;28;20190;-72
2022/05/23 11:36:00;;;;;;;8.82;2.63;;;27.10;97.20;;;;;;5064612;28;20186;-72
2022/05/23 11:38:29;;;;;;;9.93;2.30;;;27.20;97.50;;;;;;5053583;28;20193;-72
2022/05/23 11:41:41;;;;;;;7.07;2.33;;;27.10;97.90;;;;;;5064880;28;20236;-72
2022/05/23 11:44:47;;;;;;;6.00;2.38;;;27.00;97.00;;;;;;5049075;28;20659;-72
2022/05/23 11:47:25;;;;;;;5.40;2.17;;;27.10;97.00;;;;;;5055915;28;20657;-73
2022/05/23 11:50:00;;;;;;;5.88;2.38;;;27.00;97.00;;;;;;5076042;28;20292;-72
2022/05/23 11:52:42;;;;;;;5.60;2.33;;;27.00;96.80;;;;;;5065018;28;20210;-72
2022/05/23 11:55:51;;;;;;;9.05;2.10;;;27.10;97.30;;;;;;5077419;28;20843;-72
2022/05/23 11:58:24;;;;;;;4.10;2.13;;;26.90;97.20;;;;;;5073027;28;20186;-72
2022/05/23 12:01:11;;;;;;;7.40;2.35;;;27.00;97.30;;;;;;5058306;28;20195;-72
2022/05/23 12:03:58;;;;;;;5.82;2.67;;;26.90;97.10;;;;;;5056765;28;20249;-72
2022/05/23 12:06:25;;;;;;;5.93;2.05;;;27.00;97.50;;;;;;5022211;28;20211;-72
2022/05/23 12:09:30;;;;;;;6.15;2.65;;;27.00;98.00;;;;;;5066509;28;20214;-72
2022/05/23 12:12:48;;;;;;;7.45;2.63;;;26.70;98.20;;;;;;5068533;28;20198;-72
2022/05/23 12:15:43;;;;;;;6.07;2.22;;;26.90;96.70;;;;;;5073997;28;20190;-72
2022/05/23 12:18:25;;;;;;;8.00;2.55;;;26.90;96.40;;;;;;5059111;28;20563;-72
2022/05/23 12:21:06;;;;;;;4.95;2.45;;;26.90;95.90;;;;;;5045427;28;20191;-72
2022/05/23 12:23:43;;;;;;;6.50;2.35;;;26.90;96.40;;;;;;5044253;28;20187;-72
2022/05/23 12:26:10;;;;;;;10.32;2.72;;;26.90;96.80;;;;;;5065870;28;20198;-72
2022/05/23 12:29:22;;;;;;;6.80;2.38;;;26.80;97.10;;;;;;5055609;28;20697;-72
2022/05/23 12:32:22;;;;;;;5.40;2.58;;;26.90;96.90;;;;;;5061382;28;20293;-72
2022/05/23 12:34:53;;;;;;;7.45;2.10;;;26.70;97.40;;;;;;5059441;28;20175;-72
2022/05/23 12:37:41;;;;;;;6.25;2.50;;;26.80;96.50;;;;;;5065371;28;20290;-72
2022/05/23 12:40:30;;;;;;;5.03;2.50;;;26.70;96.20;;;;;;5083126;28;20254;-72
2022/05/23 12:43:41;;;;;;;8.82;2.58;;;26.80;96.80;;;;;;5040709;28;20179;-72
2022/05/23 12:46:41;;;;;;;7.40;2.38;;;26.90;96.60;;;;;;5058108;28;20203;-72
2022/05/23 12:49:32;;;;;;;6.18;2.22;;;26.90;95.90;;;;;;5054318;28;20184;-72
2022/05/23 12:52:35;;;;;;;7.78;2.10;;;26.90;95.30;;;;;;5064847;28;20213;-72
2022/05/23 12:55:26;;;;;;;5.68;1.80;;;26.90;95.10;;;;;;5060166;28;20321;-72
2022/05/23 12:58:27;;;;;;;4.55;2.35;;;27.00;94.10;;;;;;5054598;28;20266;-72
2022/05/23 13:01:16;;;;;;;7.95;2.20;;;26.90;93.50;;;;;;5047499;28;20607;-72
2022/05/23 13:03:54;;;;;;;4.22;2.05;;;26.90;93.80;;;;;;5041240;28;20194;-72
2022/05/23 13:07:13;;;;;;;7.75;1.90;;;26.90;93.00;;;;;;5063912;28;20297;-72
2022/05/23 13:09:59;;;;;;;3.70;1.85;;;27.00;93.00;;;;;;4989737;28;20311;-72
2022/05/23 13:12:36;;;;;;;5.78;1.90;;;27.10;92.40;;;;;;5045241;28;20218;-72
2022/05/23 13:15:03;;;;;;;4.20;1.92;;;27.00;91.50;;;;;;5043016;28;20208;-72
2022/05/23 13:17:35;;;;;;;2.47;1.48;;;26.90;92.60;;;;;;5066844;28;20211;-72
2022/05/23 13:22:48;;;;;;;4.75;1.75;;;26.90;93.40;;;;;;5056795;28;20198;-72
2022/05/23 13:25:15;;;;;;;5.90;2.22;;;27.00;94.10;;;;;;5032590;28;20783;-72
2022/05/23 13:27:50;;;;;;;5.82;1.52;;;26.90;93.00;;;;;;5039044;28;20546;-72
2022/05/23 13:30:16;;;;;;;8.15;1.75;;;27.00;92.80;;;;;;5071978;28;21045;-73
2022/05/23 13:32:43;;;;;;;3.17;1.55;;;27.00;91.80;;;;;;5051526;28;20697;-72
2022/05/23 13:35:23;;;;;;;4.78;1.70;;;27.00;92.80;;;;;;5048380;28;20210;-72
2022/05/23 13:37:51;;;;;;;3.65;2.03;;;27.00;92.10;;;;;;5076320;28;20183;-72
2022/05/23 13:40:29;;;;;;;4.95;2.20;;;27.00;92.80;;;;;;5050754;28;20250;-72
2022/05/23 13:43:20;;;;;;;3.85;2.13;;;27.00;92.60;;;;;;5057846;28;20194;-72
2022/05/23 13:46:00;;;;;;;7.68;2.00;;;27.00;92.50;;;;;;5066523;28;20716;-72
2022/05/23 13:48:43;;;;;;;3.72;1.70;;;26.90;92.60;;;;;;5057792;28;20186;-72
2022/05/23 13:51:24;;;;;;;5.25;1.98;;;26.90;92.40;;;;;;5040300;28;20184;-72
2022/05/23 13:54:04;;;;;;;10.43;1.70;;;26.90;92.90;;;;;;5059657;28;20629;-72
2022/05/23 13:56:31;;;;;;;6.07;2.17;;;26.90;92.70;;;;;;5077316;28;20191;-72
2022/05/23 13:59:13;;;;;;;5.05;2.08;;;26.80;93.40;;;;;;5066478;28;20655;-72
2022/05/23 14:01:49;;;;;;;4.82;2.30;;;26.70;92.80;;;;;;5067420;28;20195;-72
2022/05/23 14:04:22;;;;;;;6.20;2.38;;;26.80;92.60;;;;;;5065817;28;20190;-72
2022/05/23 14:07:04;;;;;;;7.22;2.28;;;26.80;95.40;;;;;;5043974;28;20187;-72
2022/05/23 14:09:33;;;;;;;17.90;2.95;;;26.70;97.50;;;;;;5062972;28;20191;-72
2022/05/23 14:12:11;;;;;;;6.65;2.25;;;26.50;97.90;;;;;;5068830;28;20213;-73
2022/05/23 14:14:50;;;;;;;3.88;2.17;;;26.50;97.50;;;;;;5049879;28;20193;-72
2022/05/23 14:17:32;;;;;;;7.05;2.20;;;26.40;96.80;;;;;;5061905;28;20186;-72
2022/05/23 14:20:45;;;;;;;5.68;2.10;;;26.20;96.50;;;;;;5044570;28;20315;-72
2022/05/23 14:23:11;;;;;;;9.98;2.95;;;26.10;97.50;;;;;;5016168;28;20528;-72
2022/05/23 14:25:56;;;;;;;12.27;3.08;;;26.10;98.90;;;;;;5066513;28;20576;-72
2022/05/23 14:28:56;;;;;;;5.18;2.35;;;26.00;98.70;;;;;;5063333;28;20255;-72